createdAt,value
2018-10-01T00:00:55.256Z,10.71
2018-10-01T00:03:23.627Z,10.69
2018-10-01T00:05:51.909Z,10.65
2018-10-01T00:08:20.242Z,10.64
2018-10-01T00:10:48.575Z,10.64
2018-10-01T00:13:16.909Z,10.67
2018-10-01T00:15:45.270Z,10.68
2018-10-01T00:18:13.583Z,10.70
2018-10-01T00:20:47.020Z,10.71
2018-10-01T00:23:15.395Z,10.73
2018-10-01T00:25:43.708Z,10.73
2018-10-01T00:28:12.111Z,10.74
2018-10-01T00:30:40.460Z,10.78
2018-10-01T00:33:08.796Z,10.78
2018-10-01T00:35:37.317Z,10.80
2018-10-01T00:38:05.611Z,10.82
2018-10-01T00:40:33.940Z,10.83
2018-10-01T00:43:02.246Z,10.83
2018-10-01T00:45:30.584Z,10.85
2018-10-01T00:47:58.847Z,10.85
2018-10-01T00:50:27.149Z,10.84
2018-10-01T00:52:55.441Z,10.84
2018-10-01T00:55:23.780Z,10.84
2018-10-01T00:57:52.317Z,10.87
2018-10-01T01:00:20.600Z,10.89
2018-10-01T01:02:48.956Z,10.89
2018-10-01T01:05:17.256Z,10.91
2018-10-01T01:07:45.883Z,10.91
2018-10-01T01:10:14.216Z,10.92
2018-10-01T01:12:42.631Z,10.92
2018-10-01T01:15:10.965Z,10.94
2018-10-01T01:17:39.295Z,10.97
2018-10-01T01:20:07.729Z,10.99
2018-10-01T01:22:36.057Z,11.00
2018-10-01T01:25:04.383Z,11.00
2018-10-01T01:27:32.721Z,11.00
2018-10-01T01:30:01.045Z,11.01
2018-10-01T01:32:29.357Z,11.02
2018-10-01T01:34:57.790Z,11.03
2018-10-01T01:37:26.115Z,11.01
2018-10-01T01:39:54.485Z,10.98
2018-10-01T01:42:22.808Z,10.98
2018-10-01T01:44:51.244Z,10.96
2018-10-01T01:47:19.561Z,10.95
2018-10-01T01:49:47.867Z,10.95
2018-10-01T01:52:16.169Z,10.93
2018-10-01T01:54:44.503Z,10.92
2018-10-01T01:57:12.853Z,10.92
2018-10-01T01:59:41.231Z,10.93
2018-10-01T02:02:09.583Z,10.91
2018-10-01T02:04:37.900Z,10.91
2018-10-01T02:07:06.304Z,10.90
2018-10-01T02:09:34.647Z,10.88
2018-10-01T02:12:02.976Z,10.90
2018-10-01T02:14:31.265Z,10.89
2018-10-01T02:16:59.617Z,10.88
2018-10-01T02:19:27.955Z,10.89
2018-10-01T02:21:56.376Z,10.90
2018-10-01T02:24:24.691Z,10.90
2018-10-01T02:26:53.016Z,10.90
2018-10-01T02:29:21.353Z,10.89
2018-10-01T02:31:49.694Z,10.90
2018-10-01T02:34:18.009Z,10.85
2018-10-01T02:36:46.351Z,10.80
2018-10-01T02:39:14.783Z,10.74
2018-10-01T02:41:43.148Z,10.64
2018-10-01T02:44:11.464Z,10.57
2018-10-01T02:46:39.805Z,10.51
2018-10-01T02:49:08.116Z,10.45
2018-10-01T02:51:41.816Z,10.39
2018-10-01T02:54:15.427Z,10.34
2018-10-01T02:56:43.743Z,10.27
2018-10-01T02:59:12.069Z,10.25
2018-10-01T03:01:40.406Z,10.21
2018-10-01T03:04:08.735Z,10.16
2018-10-01T03:06:37.055Z,10.13
2018-10-01T03:09:10.154Z,10.11
2018-10-01T03:11:38.458Z,10.07
2018-10-01T03:14:06.763Z,10.03
2018-10-01T03:16:35.102Z,9.98
2018-10-01T03:19:03.406Z,9.94
2018-10-01T03:21:31.716Z,9.90
2018-10-01T03:24:00.042Z,9.87
2018-10-01T03:26:28.356Z,9.86
2018-10-01T03:28:56.733Z,9.81
2018-10-01T03:31:25.098Z,9.78
2018-10-01T03:33:53.464Z,9.73
2018-10-01T03:36:21.772Z,9.69
2018-10-01T03:38:50.105Z,9.63
2018-10-01T03:41:18.425Z,9.60
2018-10-01T03:43:46.829Z,9.57
2018-10-01T03:46:15.133Z,9.54
2018-10-01T03:48:43.472Z,9.52
2018-10-01T03:51:11.950Z,9.50
2018-10-01T03:53:40.263Z,9.50
2018-10-01T03:56:08.684Z,9.48
2018-10-01T03:58:37.064Z,9.46
2018-10-01T04:01:05.403Z,9.46
2018-10-01T04:03:33.732Z,9.48
2018-10-01T04:06:02.323Z,9.49
2018-10-01T04:08:30.641Z,9.50
2018-10-01T04:10:58.959Z,9.53
2018-10-01T04:13:27.266Z,9.52
2018-10-01T04:15:55.594Z,9.50
2018-10-01T04:18:23.945Z,9.48
2018-10-01T04:20:52.235Z,9.46
2018-10-01T04:23:20.546Z,9.46
2018-10-01T04:25:48.836Z,9.49
2018-10-01T04:28:17.210Z,9.50
2018-10-01T04:30:45.514Z,9.49
2018-10-01T04:33:13.852Z,9.51
2018-10-01T04:35:42.207Z,9.52
2018-10-01T04:38:10.528Z,9.53
2018-10-01T04:40:38.848Z,9.57
2018-10-01T04:43:07.147Z,9.58
2018-10-01T04:45:35.487Z,9.59
2018-10-01T04:48:03.869Z,9.58
2018-10-01T04:50:32.209Z,9.60
2018-10-01T04:53:00.552Z,9.59
2018-10-01T04:55:28.956Z,9.58
2018-10-01T04:57:57.471Z,9.58
2018-10-01T05:00:25.716Z,9.56
2018-10-01T05:02:54.271Z,9.54
2018-10-01T05:05:22.685Z,9.54
2018-10-01T05:07:51.011Z,9.55
2018-10-01T05:10:19.360Z,9.55
2018-10-01T05:12:47.685Z,9.57
2018-10-01T05:15:16.059Z,9.61
2018-10-01T05:17:44.404Z,9.68
2018-10-01T05:20:12.777Z,9.73
2018-10-01T05:22:41.116Z,9.77
2018-10-01T05:25:09.408Z,9.80
2018-10-01T05:27:37.733Z,9.83
2018-10-01T05:30:06.046Z,9.83
2018-10-01T05:32:34.380Z,9.85
2018-10-01T05:35:02.696Z,9.83
2018-10-01T05:37:31.060Z,9.80
2018-10-01T05:39:59.368Z,9.77
2018-10-01T05:42:27.682Z,9.71
2018-10-01T05:44:56.001Z,9.66
2018-10-01T05:47:24.311Z,9.62
2018-10-01T05:49:52.640Z,9.58
2018-10-01T05:52:20.932Z,9.57
2018-10-01T05:54:49.245Z,9.59
2018-10-01T05:57:17.541Z,9.61
2018-10-01T05:59:45.865Z,9.64
2018-10-01T06:02:14.223Z,9.64
2018-10-01T06:04:42.553Z,9.63
2018-10-01T06:07:10.847Z,9.62
2018-10-01T06:09:39.160Z,9.61
2018-10-01T06:12:07.698Z,9.58
2018-10-01T06:14:36.010Z,9.55
2018-10-01T06:17:04.305Z,9.53
2018-10-01T06:19:32.691Z,9.51
2018-10-01T06:22:01.006Z,9.52
2018-10-01T06:24:29.363Z,9.53
2018-10-01T06:26:57.696Z,9.54
2018-10-01T06:29:26.023Z,9.54
2018-10-01T06:31:54.324Z,9.55
2018-10-01T06:34:22.601Z,9.55
2018-10-01T06:36:50.934Z,9.55
2018-10-01T06:39:19.242Z,9.58
2018-10-01T06:41:47.651Z,9.62
2018-10-01T06:44:15.924Z,9.65
2018-10-01T06:46:44.215Z,9.71
2018-10-01T06:49:12.536Z,9.77
2018-10-01T06:51:40.879Z,9.79
2018-10-01T06:54:09.260Z,9.84
2018-10-01T06:56:37.573Z,9.87
2018-10-01T06:59:06.008Z,9.89
2018-10-01T07:01:34.406Z,9.93
2018-10-01T07:04:02.816Z,9.98
2018-10-01T07:06:31.151Z,10.06
2018-10-01T07:08:59.715Z,10.13
2018-10-01T07:11:28.151Z,10.18
2018-10-01T07:13:56.385Z,10.22
2018-10-01T07:16:24.731Z,10.24
2018-10-01T07:18:53.164Z,10.25
2018-10-01T07:21:21.573Z,10.27
2018-10-01T07:23:49.877Z,10.31
2018-10-01T07:26:18.245Z,10.38
2018-10-01T07:28:46.567Z,10.42
2018-10-01T07:31:14.960Z,10.47
2018-10-01T07:33:43.337Z,10.51
2018-10-01T07:36:11.681Z,10.58
2018-10-01T07:38:39.988Z,10.61
2018-10-01T07:41:08.295Z,10.67
2018-10-01T07:43:36.581Z,10.73
2018-10-01T07:46:05.018Z,10.81
2018-10-01T07:48:33.263Z,10.85
2018-10-01T07:51:01.871Z,10.92
2018-10-01T07:53:30.098Z,10.97
2018-10-01T07:55:58.371Z,10.99
2018-10-01T07:58:27.067Z,11.03
2018-10-01T08:00:55.379Z,11.08
2018-10-01T08:03:24.065Z,11.14
2018-10-01T08:05:52.410Z,11.20
2018-10-01T08:08:20.847Z,11.27
2018-10-01T08:10:49.336Z,11.34
2018-10-01T08:13:17.672Z,11.40
2018-10-01T08:15:46.021Z,11.46
2018-10-01T08:18:14.808Z,11.51
2018-10-01T08:20:43.137Z,11.54
2018-10-01T08:23:11.485Z,11.59
2018-10-01T08:25:39.828Z,11.60
2018-10-01T08:28:08.306Z,11.64
2018-10-01T08:30:36.653Z,11.67
2018-10-01T08:33:04.962Z,11.72
2018-10-01T08:35:33.442Z,11.78
2018-10-01T08:38:01.942Z,11.84
2018-10-01T08:40:30.228Z,11.89
2018-10-01T08:42:58.585Z,11.92
2018-10-01T08:45:26.935Z,11.95
2018-10-01T08:47:55.324Z,12.02
2018-10-01T08:50:29.022Z,12.02
2018-10-01T08:53:08.503Z,12.05
2018-10-01T08:55:37.085Z,12.12
2018-10-01T08:58:05.409Z,12.17
2018-10-01T09:00:33.708Z,12.20
2018-10-01T09:03:02.068Z,12.23
2018-10-01T09:05:30.461Z,12.31
2018-10-01T09:07:58.747Z,12.42
2018-10-01T09:10:27.102Z,12.51
2018-10-01T09:12:55.419Z,12.61
2018-10-01T09:15:23.829Z,12.72
2018-10-01T09:17:52.269Z,12.81
2018-10-01T09:20:20.826Z,12.92
2018-10-01T09:22:49.178Z,13.03
2018-10-01T09:25:17.557Z,13.05
2018-10-01T09:27:45.916Z,13.18
2018-10-01T09:30:14.220Z,13.24
2018-10-01T09:32:42.608Z,13.36
2018-10-01T09:35:10.988Z,13.54
2018-10-01T09:37:39.448Z,13.56
2018-10-01T09:40:07.805Z,13.65
2018-10-01T09:42:36.113Z,13.92
2018-10-01T09:45:04.488Z,13.96
2018-10-01T09:47:32.827Z,13.90
2018-10-01T09:50:01.185Z,13.87
2018-10-01T09:52:29.529Z,13.84
2018-10-01T09:54:57.858Z,13.88
2018-10-01T09:57:26.216Z,13.86
2018-10-01T09:59:54.560Z,13.84
2018-10-01T10:02:22.907Z,13.87
2018-10-01T10:04:51.283Z,13.86
2018-10-01T10:07:19.737Z,13.74
2018-10-01T10:09:48.076Z,13.70
2018-10-01T10:12:16.416Z,13.67
2018-10-01T10:14:44.788Z,13.69
2018-10-01T10:17:13.182Z,13.68
2018-10-01T10:19:41.513Z,13.75
2018-10-01T10:22:09.819Z,13.97
2018-10-01T10:24:38.250Z,14.10
2018-10-01T10:27:06.588Z,14.18
2018-10-01T10:29:34.916Z,14.29
2018-10-01T10:32:03.322Z,14.39
2018-10-01T10:34:31.661Z,14.34
2018-10-01T10:36:59.895Z,14.09
2018-10-01T10:39:28.263Z,13.79
2018-10-01T10:41:56.609Z,13.34
2018-10-01T10:44:24.894Z,12.90
2018-10-01T10:46:53.243Z,12.68
2018-10-01T10:49:21.605Z,12.57
2018-10-01T10:51:49.934Z,12.48
2018-10-01T10:54:18.256Z,12.40
2018-10-01T10:56:46.650Z,12.43
2018-10-01T10:59:14.927Z,12.58
2018-10-01T11:01:43.266Z,12.85
2018-10-01T11:04:11.580Z,13.18
2018-10-01T11:06:39.868Z,13.22
2018-10-01T11:09:09.585Z,13.33
2018-10-01T11:11:37.977Z,13.42
2018-10-01T11:14:06.756Z,13.41
2018-10-01T11:16:35.038Z,13.33
2018-10-01T11:19:03.491Z,13.10
2018-10-01T11:21:31.748Z,12.74
2018-10-01T11:23:59.994Z,12.37
2018-10-01T11:26:28.320Z,12.14
2018-10-01T11:28:56.708Z,11.99
2018-10-01T11:31:24.978Z,11.97
2018-10-01T11:33:53.480Z,12.03
2018-10-01T11:36:21.839Z,12.10
2018-10-01T11:38:50.110Z,12.09
2018-10-01T11:41:18.448Z,12.08
2018-10-01T11:43:46.773Z,12.02
2018-10-01T11:46:15.099Z,11.94
2018-10-01T11:48:43.444Z,11.89
2018-10-01T11:51:11.825Z,11.86
2018-10-01T11:53:40.385Z,11.92
2018-10-01T11:56:08.728Z,12.05
2018-10-01T11:58:37.047Z,12.24
2018-10-01T12:01:05.439Z,12.47
2018-10-01T12:03:33.848Z,12.53
2018-10-01T12:06:02.133Z,12.42
2018-10-01T12:08:30.420Z,12.29
2018-10-01T12:10:58.768Z,12.18
2018-10-01T12:13:27.084Z,12.11
2018-10-01T12:15:55.534Z,12.15
2018-10-01T12:18:23.747Z,12.16
2018-10-01T12:20:52.106Z,12.23
2018-10-01T12:23:20.411Z,12.34
2018-10-01T12:25:48.755Z,12.42
2018-10-01T12:28:17.057Z,12.40
2018-10-01T12:30:45.468Z,12.47
2018-10-01T12:33:13.897Z,12.53
2018-10-01T12:35:42.175Z,12.65
2018-10-01T12:38:10.475Z,12.79
2018-10-01T12:40:38.783Z,12.91
2018-10-01T12:43:07.284Z,12.88
2018-10-01T12:45:35.649Z,13.02
2018-10-01T12:48:03.986Z,13.18
2018-10-01T12:50:33.015Z,13.32
2018-10-01T12:53:01.228Z,13.37
2018-10-01T12:55:29.740Z,13.31
2018-10-01T12:57:58.041Z,13.28
2018-10-01T13:00:26.357Z,13.23
2018-10-01T13:02:54.653Z,13.14
2018-10-01T13:05:22.957Z,13.09
2018-10-01T13:07:51.299Z,13.03
2018-10-01T13:10:19.622Z,12.98
2018-10-01T13:12:47.937Z,12.95
2018-10-01T13:15:16.305Z,12.91
2018-10-01T13:17:44.861Z,12.85
2018-10-01T13:20:14.140Z,12.81
2018-10-01T13:22:42.436Z,12.17
2018-10-01T13:25:10.744Z,11.71
2018-10-01T13:27:39.078Z,11.49
2018-10-01T13:30:07.508Z,11.43
2018-10-01T13:32:35.881Z,11.41
2018-10-01T13:35:05.028Z,11.46
2018-10-01T13:37:33.411Z,11.54
2018-10-01T13:40:01.788Z,11.63
2018-10-01T13:42:30.145Z,11.65
2018-10-01T13:44:58.424Z,11.67
2018-10-01T13:47:26.805Z,11.70
2018-10-01T13:49:55.361Z,11.79
2018-10-01T13:52:23.709Z,11.90
2018-10-01T13:54:52.026Z,11.90
2018-10-01T13:57:20.322Z,11.86
2018-10-01T13:59:48.703Z,11.92
2018-10-01T14:02:17.155Z,11.99
2018-10-01T14:04:45.492Z,12.11
2018-10-01T14:07:13.876Z,12.22
2018-10-01T14:09:42.187Z,12.35
2018-10-01T14:12:10.564Z,12.60
2018-10-01T14:14:38.886Z,12.83
2018-10-01T14:17:07.419Z,12.95
2018-10-01T14:19:35.777Z,12.98
2018-10-01T14:22:04.096Z,13.01
2018-10-01T14:24:32.404Z,12.90
2018-10-01T14:27:00.726Z,12.94
2018-10-01T14:29:29.057Z,12.85
2018-10-01T14:31:57.343Z,12.99
2018-10-01T14:34:25.680Z,13.03
2018-10-01T14:36:54.110Z,13.07
2018-10-01T14:39:23.132Z,12.94
2018-10-01T14:41:51.435Z,12.86
2018-10-01T14:44:19.750Z,12.74
2018-10-01T14:46:48.078Z,12.64
2018-10-01T14:49:17.197Z,12.68
2018-10-01T14:51:45.649Z,12.81
2018-10-01T14:54:14.099Z,12.76
2018-10-01T14:56:42.364Z,12.68
2018-10-01T14:59:10.651Z,12.42
2018-10-01T15:01:39.640Z,12.18
2018-10-01T15:04:07.999Z,11.97
2018-10-01T15:06:36.353Z,11.66
2018-10-01T15:09:06.631Z,11.63
2018-10-01T15:11:34.978Z,11.52
2018-10-01T15:14:03.396Z,11.40
2018-10-01T15:16:32.716Z,11.39
2018-10-01T15:19:01.021Z,11.41
2018-10-01T15:21:30.129Z,11.45
2018-10-01T15:23:58.569Z,11.54
2018-10-01T15:26:26.852Z,11.69
2018-10-01T15:28:55.305Z,11.78
2018-10-01T15:31:23.613Z,11.81
2018-10-01T15:33:51.916Z,11.79
2018-10-01T15:36:20.478Z,11.72
2018-10-01T15:38:48.811Z,11.68
2018-10-01T15:41:18.494Z,11.64
2018-10-01T15:43:46.800Z,11.61
2018-10-01T15:46:15.135Z,11.57
2018-10-01T15:48:43.439Z,11.56
2018-10-01T15:51:11.782Z,11.57
2018-10-01T15:53:40.052Z,11.63
2018-10-01T15:56:09.469Z,11.71
2018-10-01T15:58:39.710Z,11.72
2018-10-01T16:01:08.021Z,11.68
2018-10-01T16:03:36.363Z,11.61
2018-10-01T16:06:05.885Z,11.53
2018-10-01T16:08:35.377Z,11.43
2018-10-01T16:11:03.706Z,11.32
2018-10-01T16:13:32.144Z,11.23
2018-10-01T16:16:00.529Z,11.15
2018-10-01T16:18:28.821Z,11.09
2018-10-01T16:20:57.604Z,11.09
2018-10-01T16:23:26.310Z,11.08
2018-10-01T16:25:54.721Z,11.07
2018-10-01T16:28:23.029Z,11.02
2018-10-01T16:30:51.351Z,10.94
2018-10-01T16:33:19.669Z,10.88
2018-10-01T16:35:47.988Z,10.83
2018-10-01T16:38:16.541Z,10.78
2018-10-01T16:40:44.847Z,10.75
2018-10-01T16:43:13.559Z,10.73
2018-10-01T16:45:41.895Z,10.72
2018-10-01T16:48:10.193Z,10.71
2018-10-01T16:50:38.516Z,10.65
2018-10-01T16:53:08.637Z,10.54
2018-10-01T16:55:36.941Z,10.50
2018-10-01T16:58:05.280Z,10.45
2018-10-01T17:02:03.946Z,10.31
2018-10-01T17:04:32.492Z,10.21
2018-10-01T17:07:00.850Z,10.14
2018-10-01T17:09:35.624Z,10.11
2018-10-01T17:12:03.921Z,10.09
2018-10-01T17:14:32.272Z,10.05
2018-10-01T17:17:00.629Z,10.00
2018-10-01T17:19:28.978Z,9.97
2018-10-01T17:21:57.256Z,9.91
2018-10-01T17:24:25.587Z,9.89
2018-10-01T17:26:53.879Z,9.91
2018-10-01T17:29:22.207Z,9.91
2018-10-01T17:31:50.541Z,9.91
2018-10-01T17:34:18.919Z,9.90
2018-10-01T17:36:47.219Z,9.90
2018-10-01T17:39:15.540Z,9.89
2018-10-01T17:41:43.861Z,9.89
2018-10-01T17:44:12.165Z,9.87
2018-10-01T17:46:40.551Z,9.87
2018-10-01T17:49:08.876Z,9.85
2018-10-01T17:51:37.208Z,9.80
2018-10-01T17:54:05.590Z,9.74
2018-10-01T17:56:34.286Z,9.72
2018-10-01T17:59:02.601Z,9.74
2018-10-01T18:01:30.933Z,9.73
2018-10-01T18:04:00.328Z,9.70
2018-10-01T18:06:28.625Z,9.68
2018-10-01T18:08:56.969Z,9.63
2018-10-01T18:11:25.314Z,9.56
2018-10-01T18:13:53.642Z,9.51
2018-10-01T18:16:22.016Z,9.46
2018-10-01T18:18:50.304Z,9.46
2018-10-01T18:21:18.642Z,9.43
2018-10-01T18:23:47.018Z,9.41
2018-10-01T18:26:15.304Z,9.39
2018-10-01T18:28:43.711Z,9.34
2018-10-01T18:31:12.052Z,9.29
2018-10-01T18:33:40.368Z,9.23
2018-10-01T18:36:17.692Z,9.18
2018-10-01T18:38:46.001Z,9.13
2018-10-01T18:41:14.336Z,9.11
2018-10-01T18:43:42.763Z,9.10
2018-10-01T18:46:11.033Z,9.08
2018-10-01T18:48:39.397Z,9.06
2018-10-01T18:51:07.868Z,9.00
2018-10-01T18:53:36.186Z,8.94
2018-10-01T18:56:04.608Z,8.93
2018-10-01T18:58:32.920Z,8.92
2018-10-01T19:01:01.264Z,8.88
2018-10-01T19:03:29.671Z,8.91
2018-10-01T19:05:57.958Z,8.91
2018-10-01T19:08:26.373Z,8.89
2018-10-01T19:10:54.665Z,8.89
2018-10-01T19:13:22.976Z,8.91
2018-10-01T19:15:51.322Z,8.91
2018-10-01T19:18:19.681Z,8.91
2018-10-01T19:20:48.115Z,8.88
2018-10-01T19:23:16.425Z,8.88
2018-10-01T19:25:46.180Z,8.87
2018-10-01T19:28:14.498Z,8.87
2018-10-01T19:30:42.851Z,8.85
2018-10-01T19:33:11.180Z,8.86
2018-10-01T19:35:39.569Z,8.85
2018-10-01T19:38:07.916Z,8.78
2018-10-01T19:40:36.267Z,8.72
2018-10-01T19:43:05.187Z,8.64
2018-10-01T19:45:33.716Z,8.57
2018-10-01T19:48:02.023Z,8.53
2018-10-01T19:50:30.369Z,8.48
2018-10-01T19:52:58.718Z,8.44
2018-10-01T19:55:27.021Z,8.39
2018-10-01T19:57:55.368Z,8.34
2018-10-01T20:00:23.839Z,8.28
2018-10-01T20:02:52.164Z,8.23
2018-10-01T20:05:20.599Z,8.21
2018-10-01T20:07:48.859Z,8.18
2018-10-01T20:10:17.231Z,8.13
2018-10-01T20:12:45.566Z,8.08
2018-10-01T20:15:14.319Z,8.01
2018-10-01T20:17:42.650Z,7.97
2018-10-01T20:20:10.975Z,7.95
2018-10-01T20:22:39.316Z,7.93
2018-10-01T20:25:07.633Z,7.92
2018-10-01T20:27:36.041Z,7.87
2018-10-01T20:30:04.353Z,7.83
2018-10-01T20:32:32.680Z,7.78
2018-10-01T20:35:01.047Z,7.74
2018-10-01T20:37:29.322Z,7.70
2018-10-01T20:39:57.657Z,7.67
2018-10-01T20:42:26.061Z,7.66
2018-10-01T20:44:54.313Z,7.63
2018-10-01T20:47:22.726Z,7.62
2018-10-01T20:49:51.094Z,7.61
2018-10-01T20:52:19.444Z,7.59
2018-10-01T20:54:47.805Z,7.63
2018-10-01T20:57:16.194Z,7.63
2018-10-01T20:59:44.763Z,7.64
2018-10-01T21:02:13.116Z,7.65
2018-10-01T21:04:41.468Z,7.62
2018-10-01T21:07:09.928Z,7.67
2018-10-01T21:09:38.232Z,7.67
2018-10-01T21:12:06.930Z,7.63
2018-10-01T21:14:35.244Z,7.62
2018-10-01T21:17:03.600Z,7.58
2018-10-01T21:19:32.432Z,7.57
2018-10-01T21:22:00.746Z,7.56
2018-10-01T21:24:29.130Z,7.55
2018-10-01T21:26:57.480Z,7.53
2018-10-01T21:29:25.916Z,7.51
2018-10-01T21:31:54.216Z,7.47
2018-10-01T21:34:22.735Z,7.45
2018-10-01T21:36:52.229Z,7.43
2018-10-01T21:39:25.780Z,7.42
2018-10-01T21:41:54.107Z,7.44
2018-10-01T21:44:22.444Z,7.43
2018-10-01T21:46:50.739Z,7.41
2018-10-01T21:49:19.049Z,7.43
2018-10-01T21:51:48.088Z,7.43
2018-10-01T21:54:16.418Z,7.45
2018-10-01T21:56:45.101Z,7.45
2018-10-01T21:59:13.440Z,7.46
2018-10-01T22:01:41.822Z,7.44
2018-10-01T22:04:10.535Z,7.44
2018-10-01T22:06:39.014Z,7.41
2018-10-01T22:09:08.629Z,7.41
2018-10-01T22:11:36.965Z,7.42
2018-10-01T22:14:05.644Z,7.47
2018-10-01T22:16:34.460Z,7.51
2018-10-01T22:19:02.816Z,7.60
2018-10-01T22:21:31.157Z,7.68
2018-10-01T22:23:59.487Z,7.74
2018-10-01T22:26:27.997Z,7.79
2018-10-01T22:28:56.500Z,7.84
2018-10-01T22:31:24.825Z,7.85
2018-10-01T22:33:53.803Z,7.87
2018-10-01T22:36:22.110Z,7.87
2018-10-01T22:38:50.470Z,7.86
2018-10-01T22:41:19.853Z,7.81
2018-10-01T22:43:48.147Z,7.76
2018-10-01T22:46:16.502Z,7.71
2018-10-01T22:48:45.036Z,7.65
2018-10-01T22:51:13.363Z,7.64
2018-10-01T22:53:45.567Z,7.64
2018-10-01T22:56:13.894Z,7.71
2018-10-01T22:58:42.211Z,7.74
2018-10-01T23:01:10.629Z,7.80
2018-10-01T23:03:38.968Z,7.86
2018-10-01T23:06:07.619Z,7.90
2018-10-01T23:08:35.987Z,7.92
2018-10-01T23:11:04.331Z,7.95
2018-10-01T23:13:32.783Z,7.98
2018-10-01T23:16:01.106Z,8.02
2018-10-01T23:18:29.417Z,8.05
2018-10-01T23:20:57.971Z,8.07
2018-10-01T23:23:26.362Z,8.10
2018-10-01T23:25:55.089Z,8.12
2018-10-01T23:28:23.412Z,8.15
2018-10-01T23:30:51.930Z,8.16
2018-10-01T23:33:20.247Z,8.18
2018-10-01T23:35:48.555Z,8.20
2018-10-01T23:38:16.962Z,8.20
2018-10-01T23:40:45.251Z,8.20
2018-10-01T23:43:13.899Z,8.20
2018-10-01T23:45:42.349Z,8.18
2018-10-01T23:48:10.703Z,8.18
2018-10-01T23:50:38.995Z,8.17
2018-10-01T23:53:07.355Z,8.20
2018-10-01T23:55:35.667Z,8.21
2018-10-01T23:58:04.131Z,8.23
